UACC/TSE METAR and TAF weather

Enter ICAO airport designator
Station Type Date Time Source
UACC METAR 2019/08/23 15:00 UTC NOAA

UACC 231500Z 28002MPS CAVOK 20/10 Q1021 R22/0///70 NOSIG RMK QFE734/0979


Station Type Date Time Source
UACC Decoded METAR 2019/08/23 15:00 UTC NOAA

Station name not available
Aug 23, 2019 - 11:00 AM EDT / 2019.08.23 1500 UTC
Wind: from the W (280 degrees) at 4 MPH (4 KT):0
Visibility: greater than 7 mile(s):0
Temperature: 68 F (20 C)
Dew Point: 50 F (10 C)
Relative Humidity: 52%
Pressure (altimeter): 30.15 in. Hg (1021 hPa)
ob: UACC 231500Z 28002MPS CAVOK 20/10 Q1021 R22/0///70 NOSIG RMK QFE734/0979
cycle: 15

Station Type Date Time Source
UACC TAF 2019/08/23 12:18 UTC NOAA

TAF UACC 231100Z 2312/2412 VRB02MPS 9999 SCT030 SCT100 TX26/2410Z TN12/2323Z
TEMPO 2318/2403 3100 BR SCT004
BECMG 2403/2405 24006MPS

Example: see airport list